sensor_id;sensor_type;location;lat;lon;timestamp;P1;durP1;ratioP1;P2;durP2;ratioP2
50126;SDS011;36024;47.974;16.398;2023-03-30T00:01:03;7.60;;;6.80;;
50126;SDS011;36024;47.974;16.398;2023-03-30T00:03:37;9.20;;;6.63;;
50126;SDS011;36024;47.974;16.398;2023-03-30T00:06:05;7.80;;;6.73;;
50126;SDS011;36024;47.974;16.398;2023-03-30T00:08:33;7.00;;;6.07;;
50126;SDS011;36024;47.974;16.398;2023-03-30T00:11:00;7.33;;;5.90;;
50126;SDS011;36024;47.974;16.398;2023-03-30T00:13:29;7.67;;;6.60;;
50126;SDS011;36024;47.974;16.398;2023-03-30T00:15:57;8.80;;;6.00;;
50126;SDS011;36024;47.974;16.398;2023-03-30T00:18:24;7.27;;;6.57;;
50126;SDS011;36024;47.974;16.398;2023-03-30T00:20:54;8.10;;;6.20;;
50126;SDS011;36024;47.974;16.398;2023-03-30T00:23:21;6.80;;;6.10;;
50126;SDS011;36024;47.974;16.398;2023-03-30T00:25:48;6.50;;;5.87;;
50126;SDS011;36024;47.974;16.398;2023-03-30T00:28:15;8.57;;;6.37;;
50126;SDS011;36024;47.974;16.398;2023-03-30T00:30:41;7.33;;;5.90;;
50126;SDS011;36024;47.974;16.398;2023-03-30T00:33:09;7.80;;;5.90;;
50126;SDS011;36024;47.974;16.398;2023-03-30T00:35:36;7.13;;;6.43;;
50126;SDS011;36024;47.974;16.398;2023-03-30T00:38:03;7.43;;;6.30;;
50126;SDS011;36024;47.974;16.398;2023-03-30T00:40:33;6.30;;;5.70;;
50126;SDS011;36024;47.974;16.398;2023-03-30T00:43:00;6.73;;;6.00;;
50126;SDS011;36024;47.974;16.398;2023-03-30T00:45:29;7.03;;;6.27;;
50126;SDS011;36024;47.974;16.398;2023-03-30T00:50:49;6.03;;;5.43;;
50126;SDS011;36024;47.974;16.398;2023-03-30T00:53:17;6.77;;;5.47;;
50126;SDS011;36024;47.974;16.398;2023-03-30T00:55:47;5.93;;;5.30;;
50126;SDS011;36024;47.974;16.398;2023-03-30T00:58:17;5.60;;;5.10;;
50126;SDS011;36024;47.974;16.398;2023-03-30T01:00:44;6.03;;;5.30;;
50126;SDS011;36024;47.974;16.398;2023-03-30T01:03:16;5.57;;;4.93;;
50126;SDS011;36024;47.974;16.398;2023-03-30T01:05:44;8.07;;;5.80;;
50126;SDS011;36024;47.974;16.398;2023-03-30T01:08:11;5.30;;;4.80;;
50126;SDS011;36024;47.974;16.398;2023-03-30T01:10:39;7.63;;;5.07;;
50126;SDS011;36024;47.974;16.398;2023-03-30T01:13:06;5.97;;;4.70;;
50126;SDS011;36024;47.974;16.398;2023-03-30T01:15:34;5.07;;;4.67;;
50126;SDS011;36024;47.974;16.398;2023-03-30T01:18:12;4.97;;;4.47;;
50126;SDS011;36024;47.974;16.398;2023-03-30T01:21:18;5.67;;;4.67;;
50126;SDS011;36024;47.974;16.398;2023-03-30T01:24:32;5.13;;;4.27;;
50126;SDS011;36024;47.974;16.398;2023-03-30T01:38:32;5.60;;;4.60;;
50126;SDS011;36024;47.974;16.398;2023-03-30T01:43:59;5.10;;;4.60;;
50126;SDS011;36024;47.974;16.398;2023-03-30T01:46:54;5.27;;;4.60;;
50126;SDS011;36024;47.974;16.398;2023-03-30T01:55:12;5.47;;;4.63;;
50126;SDS011;36024;47.974;16.398;2023-03-30T02:00:35;6.03;;;4.83;;
50126;SDS011;36024;47.974;16.398;2023-03-30T02:03:13;6.87;;;5.20;;
50126;SDS011;36024;47.974;16.398;2023-03-30T02:05:45;6.03;;;4.97;;
50126;SDS011;36024;47.974;16.398;2023-03-30T02:08:16;5.43;;;4.87;;
50126;SDS011;36024;47.974;16.398;2023-03-30T02:10:48;5.53;;;4.70;;
50126;SDS011;36024;47.974;16.398;2023-03-30T02:13:16;5.93;;;5.13;;
50126;SDS011;36024;47.974;16.398;2023-03-30T02:15:47;6.97;;;5.87;;
50126;SDS011;36024;47.974;16.398;2023-03-30T02:18:17;6.13;;;5.50;;
50126;SDS011;36024;47.974;16.398;2023-03-30T02:20:47;5.93;;;5.20;;
50126;SDS011;36024;47.974;16.398;2023-03-30T02:23:15;6.27;;;5.23;;
50126;SDS011;36024;47.974;16.398;2023-03-30T02:25:44;5.87;;;5.20;;
50126;SDS011;36024;47.974;16.398;2023-03-30T02:28:11;5.97;;;5.37;;
50126;SDS011;36024;47.974;16.398;2023-03-30T02:30:39;5.80;;;5.30;;
50126;SDS011;36024;47.974;16.398;2023-03-30T02:33:10;6.07;;;5.03;;
50126;SDS011;36024;47.974;16.398;2023-03-30T02:35:52;6.37;;;5.73;;
50126;SDS011;36024;47.974;16.398;2023-03-30T02:38:49;7.57;;;5.40;;
50126;SDS011;36024;47.974;16.398;2023-03-30T02:41:28;6.83;;;5.40;;
50126;SDS011;36024;47.974;16.398;2023-03-30T02:47:11;6.33;;;5.60;;
50126;SDS011;36024;47.974;16.398;2023-03-30T02:49:54;7.53;;;5.37;;
50126;SDS011;36024;47.974;16.398;2023-03-30T02:52:27;6.43;;;5.80;;
50126;SDS011;36024;47.974;16.398;2023-03-30T02:57:52;10.50;;;9.40;;
50126;SDS011;36024;47.974;16.398;2023-03-30T03:01:02;8.00;;;7.30;;
50126;SDS011;36024;47.974;16.398;2023-03-30T03:03:52;8.20;;;5.63;;
50126;SDS011;36024;47.974;16.398;2023-03-30T03:06:26;6.50;;;5.90;;
50126;SDS011;36024;47.974;16.398;2023-03-30T03:08:55;6.73;;;5.67;;
50126;SDS011;36024;47.974;16.398;2023-03-30T03:11:26;6.20;;;5.60;;
50126;SDS011;36024;47.974;16.398;2023-03-30T03:13:53;6.40;;;5.80;;
50126;SDS011;36024;47.974;16.398;2023-03-30T03:16:22;6.93;;;5.70;;
50126;SDS011;36024;47.974;16.398;2023-03-30T03:19:09;6.50;;;5.73;;
50126;SDS011;36024;47.974;16.398;2023-03-30T03:21:37;6.40;;;5.77;;
50126;SDS011;36024;47.974;16.398;2023-03-30T03:24:05;6.17;;;5.43;;
50126;SDS011;36024;47.974;16.398;2023-03-30T03:27:03;6.27;;;5.67;;
50126;SDS011;36024;47.974;16.398;2023-03-30T03:29:41;6.33;;;5.70;;
50126;SDS011;36024;47.974;16.398;2023-03-30T03:32:10;6.93;;;5.70;;
50126;SDS011;36024;47.974;16.398;2023-03-30T03:34:44;6.37;;;5.47;;
50126;SDS011;36024;47.974;16.398;2023-03-30T03:37:12;6.90;;;6.00;;
50126;SDS011;36024;47.974;16.398;2023-03-30T03:39:39;8.83;;;5.80;;
50126;SDS011;36024;47.974;16.398;2023-03-30T03:42:12;7.47;;;5.67;;
50126;SDS011;36024;47.974;16.398;2023-03-30T03:44:48;6.47;;;5.67;;
50126;SDS011;36024;47.974;16.398;2023-03-30T03:47:15;7.20;;;6.50;;
50126;SDS011;36024;47.974;16.398;2023-03-30T03:49:43;7.10;;;6.40;;
50126;SDS011;36024;47.974;16.398;2023-03-30T03:52:10;6.90;;;6.20;;
50126;SDS011;36024;47.974;16.398;2023-03-30T03:54:38;6.83;;;6.23;;
50126;SDS011;36024;47.974;16.398;2023-03-30T03:57:07;7.60;;;6.67;;
50126;SDS011;36024;47.974;16.398;2023-03-30T03:59:34;8.53;;;6.47;;
50126;SDS011;36024;47.974;16.398;2023-03-30T04:02:01;7.13;;;6.50;;
50126;SDS011;36024;47.974;16.398;2023-03-30T04:04:28;6.73;;;6.13;;
50126;SDS011;36024;47.974;16.398;2023-03-30T04:06:55;7.80;;;7.00;;
50126;SDS011;36024;47.974;16.398;2023-03-30T04:09:22;7.10;;;6.40;;
50126;SDS011;36024;47.974;16.398;2023-03-30T04:12:25;7.87;;;7.07;;
50126;SDS011;36024;47.974;16.398;2023-03-30T04:15:15;8.47;;;6.77;;
50126;SDS011;36024;47.974;16.398;2023-03-30T04:18:05;8.43;;;7.00;;
50126;SDS011;36024;47.974;16.398;2023-03-30T04:20:54;8.27;;;7.30;;
50126;SDS011;36024;47.974;16.398;2023-03-30T04:23:37;8.37;;;7.47;;
50126;SDS011;36024;47.974;16.398;2023-03-30T04:26:31;8.13;;;7.33;;
50126;SDS011;36024;47.974;16.398;2023-03-30T04:29:27;8.20;;;7.40;;
50126;SDS011;36024;47.974;16.398;2023-03-30T04:32:14;8.60;;;7.80;;
50126;SDS011;36024;47.974;16.398;2023-03-30T04:34:51;8.77;;;7.87;;
50126;SDS011;36024;47.974;16.398;2023-03-30T04:37:45;8.23;;;7.43;;
50126;SDS011;36024;47.974;16.398;2023-03-30T04:40:35;8.77;;;7.97;;
50126;SDS011;36024;47.974;16.398;2023-03-30T04:43:08;8.40;;;7.53;;
50126;SDS011;36024;47.974;16.398;2023-03-30T04:46:01;8.37;;;7.50;;
50126;SDS011;36024;47.974;16.398;2023-03-30T04:48:47;8.70;;;7.90;;
50126;SDS011;36024;47.974;16.398;2023-03-30T04:51:37;8.67;;;7.70;;
50126;SDS011;36024;47.974;16.398;2023-03-30T04:54:23;8.73;;;7.83;;
50126;SDS011;36024;47.974;16.398;2023-03-30T04:56:59;8.33;;;7.47;;
50126;SDS011;36024;47.974;16.398;2023-03-30T04:59:56;8.80;;;8.00;;
50126;SDS011;36024;47.974;16.398;2023-03-30T05:02:41;9.13;;;8.20;;
50126;SDS011;36024;47.974;16.398;2023-03-30T05:05:40;15.23;;;11.00;;
50126;SDS011;36024;47.974;16.398;2023-03-30T05:08:35;10.47;;;9.13;;
50126;SDS011;36024;47.974;16.398;2023-03-30T05:11:28;9.47;;;8.43;;
50126;SDS011;36024;47.974;16.398;2023-03-30T05:13:59;9.03;;;8.13;;
50126;SDS011;36024;47.974;16.398;2023-03-30T05:16:53;9.20;;;8.30;;
50126;SDS011;36024;47.974;16.398;2023-03-30T05:19:55;8.57;;;7.77;;
50126;SDS011;36024;47.974;16.398;2023-03-30T05:22:53;9.53;;;8.53;;
50126;SDS011;36024;47.974;16.398;2023-03-30T05:25:49;8.47;;;7.67;;
50126;SDS011;36024;47.974;16.398;2023-03-30T05:28:51;9.93;;;8.73;;
50126;SDS011;36024;47.974;16.398;2023-03-30T05:31:37;12.07;;;10.30;;
50126;SDS011;36024;47.974;16.398;2023-03-30T05:34:17;10.97;;;9.13;;
50126;SDS011;36024;47.974;16.398;2023-03-30T05:37:06;9.30;;;8.50;;
50126;SDS011;36024;47.974;16.398;2023-03-30T05:39:56;8.80;;;7.90;;
50126;SDS011;36024;47.974;16.398;2023-03-30T05:42:41;9.43;;;8.47;;
50126;SDS011;36024;47.974;16.398;2023-03-30T05:45:17;11.80;;;8.83;;
50126;SDS011;36024;47.974;16.398;2023-03-30T05:47:58;10.30;;;8.80;;
50126;SDS011;36024;47.974;16.398;2023-03-30T05:50:54;9.57;;;8.57;;
50126;SDS011;36024;47.974;16.398;2023-03-30T05:53:34;9.63;;;8.63;;
50126;SDS011;36024;47.974;16.398;2023-03-30T05:56:19;9.63;;;8.63;;
50126;SDS011;36024;47.974;16.398;2023-03-30T05:58:54;10.20;;;8.77;;
50126;SDS011;36024;47.974;16.398;2023-03-30T06:01:40;11.27;;;10.07;;
50126;SDS011;36024;47.974;16.398;2023-03-30T06:04:06;11.80;;;9.87;;
50126;SDS011;36024;47.974;16.398;2023-03-30T06:06:35;12.17;;;10.07;;
50126;SDS011;36024;47.974;16.398;2023-03-30T06:09:02;10.63;;;8.80;;
50126;SDS011;36024;47.974;16.398;2023-03-30T06:11:31;9.90;;;8.90;;
50126;SDS011;36024;47.974;16.398;2023-03-30T06:14:08;11.70;;;8.73;;
50126;SDS011;36024;47.974;16.398;2023-03-30T06:16:37;10.63;;;9.00;;
50126;SDS011;36024;47.974;16.398;2023-03-30T06:19:05;10.53;;;9.00;;
50126;SDS011;36024;47.974;16.398;2023-03-30T06:21:32;11.27;;;9.40;;
50126;SDS011;36024;47.974;16.398;2023-03-30T06:24:22;9.47;;;8.47;;
50126;SDS011;36024;47.974;16.398;2023-03-30T06:26:51;12.90;;;9.73;;
50126;SDS011;36024;47.974;16.398;2023-03-30T06:29:17;11.63;;;8.70;;
50126;SDS011;36024;47.974;16.398;2023-03-30T06:31:44;9.40;;;8.27;;
50126;SDS011;36024;47.974;16.398;2023-03-30T06:34:30;9.33;;;8.10;;
50126;SDS011;36024;47.974;16.398;2023-03-30T06:36:57;7.70;;;7.00;;
50126;SDS011;36024;47.974;16.398;2023-03-30T06:39:26;8.13;;;7.33;;
50126;SDS011;36024;47.974;16.398;2023-03-30T06:41:54;7.97;;;7.17;;
50126;SDS011;36024;47.974;16.398;2023-03-30T06:44:39;6.90;;;6.23;;
50126;SDS011;36024;47.974;16.398;2023-03-30T06:47:11;7.17;;;6.47;;
50126;SDS011;36024;47.974;16.398;2023-03-30T06:49:38;8.17;;;6.67;;
50126;SDS011;36024;47.974;16.398;2023-03-30T06:52:35;6.80;;;6.20;;
50126;SDS011;36024;47.974;16.398;2023-03-30T06:55:03;7.20;;;6.50;;
50126;SDS011;36024;47.974;16.398;2023-03-30T06:57:34;7.13;;;6.50;;
50126;SDS011;36024;47.974;16.398;2023-03-30T07:00:01;7.63;;;6.93;;
50126;SDS011;36024;47.974;16.398;2023-03-30T07:02:39;7.73;;;7.03;;
50126;SDS011;36024;47.974;16.398;2023-03-30T07:05:20;8.37;;;7.50;;
50126;SDS011;36024;47.974;16.398;2023-03-30T07:08:19;9.20;;;8.30;;
50126;SDS011;36024;47.974;16.398;2023-03-30T07:10:51;9.13;;;8.23;;
50126;SDS011;36024;47.974;16.398;2023-03-30T07:13:20;9.73;;;8.83;;
50126;SDS011;36024;47.974;16.398;2023-03-30T07:15:47;11.40;;;8.37;;
50126;SDS011;36024;47.974;16.398;2023-03-30T07:18:14;9.10;;;8.07;;
50126;SDS011;36024;47.974;16.398;2023-03-30T07:20:42;8.73;;;7.80;;
50126;SDS011;36024;47.974;16.398;2023-03-30T07:23:15;8.37;;;6.60;;
50126;SDS011;36024;47.974;16.398;2023-03-30T07:25:44;8.13;;;7.30;;
50126;SDS011;36024;47.974;16.398;2023-03-30T07:28:17;7.57;;;6.87;;
50126;SDS011;36024;47.974;16.398;2023-03-30T07:30:45;8.20;;;6.53;;
50126;SDS011;36024;47.974;16.398;2023-03-30T07:33:12;7.27;;;6.57;;
50126;SDS011;36024;47.974;16.398;2023-03-30T07:35:41;7.37;;;6.50;;
50126;SDS011;36024;47.974;16.398;2023-03-30T07:38:15;6.90;;;6.30;;
50126;SDS011;36024;47.974;16.398;2023-03-30T07:40:48;7.07;;;6.37;;
50126;SDS011;36024;47.974;16.398;2023-03-30T07:43:16;6.50;;;5.90;;
50126;SDS011;36024;47.974;16.398;2023-03-30T07:45:43;6.90;;;6.30;;
50126;SDS011;36024;47.974;16.398;2023-03-30T07:48:15;7.27;;;6.40;;
50126;SDS011;36024;47.974;16.398;2023-03-30T07:50:42;7.77;;;6.80;;
50126;SDS011;36024;47.974;16.398;2023-03-30T07:53:09;7.93;;;7.13;;
50126;SDS011;36024;47.974;16.398;2023-03-30T07:55:37;8.60;;;7.80;;
50126;SDS011;36024;47.974;16.398;2023-03-30T07:58:12;8.03;;;7.33;;
50126;SDS011;36024;47.974;16.398;2023-03-30T08:00:39;6.50;;;5.90;;
50126;SDS011;36024;47.974;16.398;2023-03-30T08:03:44;7.27;;;6.37;;
50126;SDS011;36024;47.974;16.398;2023-03-30T08:06:11;6.80;;;6.17;;
50126;SDS011;36024;47.974;16.398;2023-03-30T08:08:39;7.17;;;6.47;;
50126;SDS011;36024;47.974;16.398;2023-03-30T08:11:06;7.50;;;6.70;;
50126;SDS011;36024;47.974;16.398;2023-03-30T08:13:34;7.20;;;6.00;;
50126;SDS011;36024;47.974;16.398;2023-03-30T08:16:03;9.07;;;6.80;;
50126;SDS011;36024;47.974;16.398;2023-03-30T08:18:31;7.83;;;6.10;;
50126;SDS011;36024;47.974;16.398;2023-03-30T08:20:58;8.27;;;6.80;;
50126;SDS011;36024;47.974;16.398;2023-03-30T08:23:25;7.03;;;6.33;;
50126;SDS011;36024;47.974;16.398;2023-03-30T08:25:55;7.27;;;6.43;;
50126;SDS011;36024;47.974;16.398;2023-03-30T08:28:22;7.93;;;6.70;;
50126;SDS011;36024;47.974;16.398;2023-03-30T08:30:49;7.07;;;6.37;;
50126;SDS011;36024;47.974;16.398;2023-03-30T08:33:17;7.50;;;6.80;;
50126;SDS011;36024;47.974;16.398;2023-03-30T08:35:45;7.53;;;6.70;;
50126;SDS011;36024;47.974;16.398;2023-03-30T08:38:13;7.13;;;6.40;;
50126;SDS011;36024;47.974;16.398;2023-03-30T08:40:45;8.37;;;7.03;;
50126;SDS011;36024;47.974;16.398;2023-03-30T08:46:02;8.07;;;7.30;;
50126;SDS011;36024;47.974;16.398;2023-03-30T08:48:31;7.70;;;6.47;;
50126;SDS011;36024;47.974;16.398;2023-03-30T08:50:59;8.27;;;7.10;;
50126;SDS011;36024;47.974;16.398;2023-03-30T08:53:31;7.93;;;6.70;;
50126;SDS011;36024;47.974;16.398;2023-03-30T08:56:03;6.90;;;6.30;;
50126;SDS011;36024;47.974;16.398;2023-03-30T08:58:44;7.20;;;6.50;;
50126;SDS011;36024;47.974;16.398;2023-03-30T09:01:35;7.53;;;6.73;;
50126;SDS011;36024;47.974;16.398;2023-03-30T09:04:27;7.97;;;6.73;;
50126;SDS011;36024;47.974;16.398;2023-03-30T09:07:16;10.33;;;7.80;;
50126;SDS011;36024;47.974;16.398;2023-03-30T09:09:46;9.20;;;7.20;;
50126;SDS011;36024;47.974;16.398;2023-03-30T09:15:01;8.33;;;6.70;;
50126;SDS011;36024;47.974;16.398;2023-03-30T09:17:46;7.53;;;6.70;;
50126;SDS011;36024;47.974;16.398;2023-03-30T09:20:27;7.60;;;6.40;;
50126;SDS011;36024;47.974;16.398;2023-03-30T09:22:59;6.50;;;5.90;;
50126;SDS011;36024;47.974;16.398;2023-03-30T09:25:35;8.60;;;6.77;;
50126;SDS011;36024;47.974;16.398;2023-03-30T09:33:28;7.00;;;6.30;;
50126;SDS011;36024;47.974;16.398;2023-03-30T09:38:35;7.53;;;6.57;;
50126;SDS011;36024;47.974;16.398;2023-03-30T09:43:35;9.30;;;6.97;;
50126;SDS011;36024;47.974;16.398;2023-03-30T09:46:07;8.47;;;6.53;;
50126;SDS011;36024;47.974;16.398;2023-03-30T09:48:38;8.30;;;6.40;;
50126;SDS011;36024;47.974;16.398;2023-03-30T09:51:20;7.27;;;6.57;;
50126;SDS011;36024;47.974;16.398;2023-03-30T09:53:59;7.43;;;6.73;;
50126;SDS011;36024;47.974;16.398;2023-03-30T09:58:55;7.13;;;6.13;;
50126;SDS011;36024;47.974;16.398;2023-03-30T10:01:21;6.53;;;5.90;;
50126;SDS011;36024;47.974;16.398;2023-03-30T10:04:04;6.70;;;6.00;;
50126;SDS011;36024;47.974;16.398;2023-03-30T10:06:43;6.67;;;6.07;;
50126;SDS011;36024;47.974;16.398;2023-03-30T10:09:12;7.20;;;6.50;;
50126;SDS011;36024;47.974;16.398;2023-03-30T10:11:43;8.73;;;7.23;;
50126;SDS011;36024;47.974;16.398;2023-03-30T10:14:26;19.53;;;17.43;;
50126;SDS011;36024;47.974;16.398;2023-03-30T10:16:55;8.37;;;7.50;;
50126;SDS011;36024;47.974;16.398;2023-03-30T10:19:23;7.07;;;6.37;;
50126;SDS011;36024;47.974;16.398;2023-03-30T10:21:54;7.80;;;6.67;;
50126;SDS011;36024;47.974;16.398;2023-03-30T10:24:30;6.37;;;5.87;;
50126;SDS011;36024;47.974;16.398;2023-03-30T10:27:03;6.17;;;5.67;;
50126;SDS011;36024;47.974;16.398;2023-03-30T10:29:35;7.83;;;6.43;;
50126;SDS011;36024;47.974;16.398;2023-03-30T10:32:16;7.10;;;6.20;;
50126;SDS011;36024;47.974;16.398;2023-03-30T10:34:45;7.10;;;6.40;;
50126;SDS011;36024;47.974;16.398;2023-03-30T10:37:21;7.03;;;5.87;;
50126;SDS011;36024;47.974;16.398;2023-03-30T10:39:53;6.73;;;6.00;;
50126;SDS011;36024;47.974;16.398;2023-03-30T10:42:22;6.87;;;6.20;;
50126;SDS011;36024;47.974;16.398;2023-03-30T10:44:54;7.03;;;6.43;;
50126;SDS011;36024;47.974;16.398;2023-03-30T10:49:58;7.97;;;6.40;;
50126;SDS011;36024;47.974;16.398;2023-03-30T10:55:42;7.00;;;6.30;;
50126;SDS011;36024;47.974;16.398;2023-03-30T11:04:00;7.37;;;6.60;;
50126;SDS011;36024;47.974;16.398;2023-03-30T11:06:46;6.50;;;5.73;;
50126;SDS011;36024;47.974;16.398;2023-03-30T11:09:15;6.70;;;6.03;;
50126;SDS011;36024;47.974;16.398;2023-03-30T11:11:59;8.07;;;6.03;;
50126;SDS011;36024;47.974;16.398;2023-03-30T11:14:39;7.33;;;6.63;;
50126;SDS011;36024;47.974;16.398;2023-03-30T11:19:57;8.33;;;6.43;;
50126;SDS011;36024;47.974;16.398;2023-03-30T11:22:40;6.87;;;5.93;;
50126;SDS011;36024;47.974;16.398;2023-03-30T11:25:56;7.20;;;5.90;;
50126;SDS011;36024;47.974;16.398;2023-03-30T11:28:10;8.33;;;5.70;;
50126;SDS011;36024;47.974;16.398;2023-03-30T11:30:42;8.00;;;6.43;;
50126;SDS011;36024;47.974;16.398;2023-03-30T11:36:21;7.33;;;5.87;;
50126;SDS011;36024;47.974;16.398;2023-03-30T11:38:54;6.97;;;6.20;;
50126;SDS011;36024;47.974;16.398;2023-03-30T11:41:30;7.20;;;6.50;;
50126;SDS011;36024;47.974;16.398;2023-03-30T11:44:02;6.80;;;6.20;;
50126;SDS011;36024;47.974;16.398;2023-03-30T11:46:34;8.40;;;5.73;;
50126;SDS011;36024;47.974;16.398;2023-03-30T11:57:57;7.80;;;6.37;;
50126;SDS011;36024;47.974;16.398;2023-03-30T12:01:17;8.20;;;6.80;;
50126;SDS011;36024;47.974;16.398;2023-03-30T12:03:34;7.73;;;6.50;;
50126;SDS011;36024;47.974;16.398;2023-03-30T12:06:40;8.10;;;7.30;;
50126;SDS011;36024;47.974;16.398;2023-03-30T12:12:07;9.17;;;8.27;;
50126;SDS011;36024;47.974;16.398;2023-03-30T12:15:14;8.53;;;7.73;;
50126;SDS011;36024;47.974;16.398;2023-03-30T12:17:49;8.47;;;7.57;;
50126;SDS011;36024;47.974;16.398;2023-03-30T12:34:22;13.47;;;12.27;;
50126;SDS011;36024;47.974;16.398;2023-03-30T12:36:53;11.00;;;10.00;;
50126;SDS011;36024;47.974;16.398;2023-03-30T12:39:31;8.90;;;8.07;;
50126;SDS011;36024;47.974;16.398;2023-03-30T12:42:06;8.87;;;7.43;;
50126;SDS011;36024;47.974;16.398;2023-03-30T12:50:26;8.10;;;7.30;;
50126;SDS011;36024;47.974;16.398;2023-03-30T12:53:01;7.60;;;6.80;;
50126;SDS011;36024;47.974;16.398;2023-03-30T12:55:45;7.77;;;7.07;;
50126;SDS011;36024;47.974;16.398;2023-03-30T13:01:18;12.00;;;10.80;;
50126;SDS011;36024;47.974;16.398;2023-03-30T13:03:59;38.07;;;32.10;;
50126;SDS011;36024;47.974;16.398;2023-03-30T13:06:33;12.13;;;10.97;;
50126;SDS011;36024;47.974;16.398;2023-03-30T13:14:26;10.57;;;8.73;;
50126;SDS011;36024;47.974;16.398;2023-03-30T13:27:26;16.27;;;11.50;;
50126;SDS011;36024;47.974;16.398;2023-03-30T13:30:00;13.33;;;8.47;;
50126;SDS011;36024;47.974;16.398;2023-03-30T13:35:17;9.30;;;8.07;;
50126;SDS011;36024;47.974;16.398;2023-03-30T13:38:42;8.03;;;7.20;;
50126;SDS011;36024;47.974;16.398;2023-03-30T13:51:32;11.13;;;8.80;;
50126;SDS011;36024;47.974;16.398;2023-03-30T13:54:03;9.10;;;7.70;;
50126;SDS011;36024;47.974;16.398;2023-03-30T13:56:43;10.93;;;7.47;;
50126;SDS011;36024;47.974;16.398;2023-03-30T13:59:14;8.00;;;7.20;;
50126;SDS011;36024;47.974;16.398;2023-03-30T14:01:48;8.00;;;7.20;;
50126;SDS011;36024;47.974;16.398;2023-03-30T14:04:18;8.90;;;8.10;;
50126;SDS011;36024;47.974;16.398;2023-03-30T14:06:46;8.50;;;7.70;;
50126;SDS011;36024;47.974;16.398;2023-03-30T14:09:21;8.37;;;7.47;;
50126;SDS011;36024;47.974;16.398;2023-03-30T14:11:58;9.60;;;7.73;;
50126;SDS011;36024;47.974;16.398;2023-03-30T14:16:55;8.77;;;7.90;;
50126;SDS011;36024;47.974;16.398;2023-03-30T14:19:24;9.10;;;8.10;;
50126;SDS011;36024;47.974;16.398;2023-03-30T14:21:54;12.23;;;9.87;;
50126;SDS011;36024;47.974;16.398;2023-03-30T14:24:26;14.27;;;11.83;;
50126;SDS011;36024;47.974;16.398;2023-03-30T14:27:02;8.90;;;8.03;;
50126;SDS011;36024;47.974;16.398;2023-03-30T14:29:31;8.57;;;7.77;;
50126;SDS011;36024;47.974;16.398;2023-03-30T14:31:59;8.30;;;7.50;;
50126;SDS011;36024;47.974;16.398;2023-03-30T14:34:31;7.80;;;7.10;;
50126;SDS011;36024;47.974;16.398;2023-03-30T14:36:59;9.07;;;7.63;;
50126;SDS011;36024;47.974;16.398;2023-03-30T14:39:29;8.27;;;7.57;;
50126;SDS011;36024;47.974;16.398;2023-03-30T14:41:57;8.97;;;7.57;;
50126;SDS011;36024;47.974;16.398;2023-03-30T14:44:31;8.43;;;7.40;;
50126;SDS011;36024;47.974;16.398;2023-03-30T14:47:03;9.07;;;8.17;;
50126;SDS011;36024;47.974;16.398;2023-03-30T14:49:30;8.90;;;8.00;;
50126;SDS011;36024;47.974;16.398;2023-03-30T14:52:02;8.63;;;7.73;;
50126;SDS011;36024;47.974;16.398;2023-03-30T14:54:33;8.60;;;7.80;;
50126;SDS011;36024;47.974;16.398;2023-03-30T14:57:02;8.40;;;7.60;;
50126;SDS011;36024;47.974;16.398;2023-03-30T14:59:32;8.93;;;7.80;;
50126;SDS011;36024;47.974;16.398;2023-03-30T15:02:05;8.53;;;7.63;;
50126;SDS011;36024;47.974;16.398;2023-03-30T15:04:49;9.07;;;8.00;;
50126;SDS011;36024;47.974;16.398;2023-03-30T15:07:17;9.73;;;7.80;;
50126;SDS011;36024;47.974;16.398;2023-03-30T15:09:45;10.00;;;8.20;;
50126;SDS011;36024;47.974;16.398;2023-03-30T15:12:20;9.43;;;8.00;;
50126;SDS011;36024;47.974;16.398;2023-03-30T15:15:00;9.60;;;8.77;;
50126;SDS011;36024;47.974;16.398;2023-03-30T15:17:28;11.23;;;10.13;;
50126;SDS011;36024;47.974;16.398;2023-03-30T15:19:57;8.83;;;7.70;;
50126;SDS011;36024;47.974;16.398;2023-03-30T15:22:29;8.70;;;7.80;;
50126;SDS011;36024;47.974;16.398;2023-03-30T15:25:00;9.20;;;7.63;;
50126;SDS011;36024;47.974;16.398;2023-03-30T15:27:32;9.03;;;7.93;;
50126;SDS011;36024;47.974;16.398;2023-03-30T15:29:59;9.57;;;7.90;;
50126;SDS011;36024;47.974;16.398;2023-03-30T15:37:33;9.60;;;8.60;;
50126;SDS011;36024;47.974;16.398;2023-03-30T15:40:01;9.17;;;8.27;;
50126;SDS011;36024;47.974;16.398;2023-03-30T15:42:30;9.70;;;8.70;;
50126;SDS011;36024;47.974;16.398;2023-03-30T15:45:03;9.37;;;8.40;;
50126;SDS011;36024;47.974;16.398;2023-03-30T15:47:35;9.57;;;8.57;;
50126;SDS011;36024;47.974;16.398;2023-03-30T15:50:02;9.67;;;8.63;;
50126;SDS011;36024;47.974;16.398;2023-03-30T15:52:31;10.73;;;9.47;;
50126;SDS011;36024;47.974;16.398;2023-03-30T15:55:32;10.60;;;9.60;;
50126;SDS011;36024;47.974;16.398;2023-03-30T15:57:53;10.60;;;9.50;;
50126;SDS011;36024;47.974;16.398;2023-03-30T16:00:25;10.87;;;9.47;;
50126;SDS011;36024;47.974;16.398;2023-03-30T16:02:54;10.77;;;9.40;;
50126;SDS011;36024;47.974;16.398;2023-03-30T16:05:24;10.83;;;9.77;;
50126;SDS011;36024;47.974;16.398;2023-03-30T16:07:52;11.10;;;10.00;;
50126;SDS011;36024;47.974;16.398;2023-03-30T16:10:20;12.10;;;10.73;;
50126;SDS011;36024;47.974;16.398;2023-03-30T16:12:50;11.27;;;9.50;;
50126;SDS011;36024;47.974;16.398;2023-03-30T16:15:22;10.67;;;9.33;;
50126;SDS011;36024;47.974;16.398;2023-03-30T16:17:50;11.17;;;10.00;;
50126;SDS011;36024;47.974;16.398;2023-03-30T16:20:21;10.63;;;9.73;;
50126;SDS011;36024;47.974;16.398;2023-03-30T16:22:53;11.00;;;9.47;;
50126;SDS011;36024;47.974;16.398;2023-03-30T16:25:21;11.63;;;9.43;;
50126;SDS011;36024;47.974;16.398;2023-03-30T16:28:10;9.83;;;6.60;;
50126;SDS011;36024;47.974;16.398;2023-03-30T16:30:40;5.23;;;4.70;;
50126;SDS011;36024;47.974;16.398;2023-03-30T16:33:08;6.33;;;4.40;;
50126;SDS011;36024;47.974;16.398;2023-03-30T16:35:35;4.47;;;3.57;;
50126;SDS011;36024;47.974;16.398;2023-03-30T16:38:03;6.33;;;3.40;;
50126;SDS011;36024;47.974;16.398;2023-03-30T16:40:30;4.87;;;3.27;;
50126;SDS011;36024;47.974;16.398;2023-03-30T16:42:58;4.67;;;2.80;;
50126;SDS011;36024;47.974;16.398;2023-03-30T16:45:25;6.87;;;3.30;;
50126;SDS011;36024;47.974;16.398;2023-03-30T16:47:53;4.83;;;3.10;;
50126;SDS011;36024;47.974;16.398;2023-03-30T16:50:40;4.30;;;3.17;;
50126;SDS011;36024;47.974;16.398;2023-03-30T16:53:07;6.83;;;3.10;;
50126;SDS011;36024;47.974;16.398;2023-03-30T16:55:35;4.93;;;3.10;;
50126;SDS011;36024;47.974;16.398;2023-03-30T16:58:03;3.33;;;2.83;;
50126;SDS011;36024;47.974;16.398;2023-03-30T17:00:31;8.33;;;3.50;;
50126;SDS011;36024;47.974;16.398;2023-03-30T17:03:03;6.83;;;3.23;;
50126;SDS011;36024;47.974;16.398;2023-03-30T17:05:30;4.37;;;3.40;;
50126;SDS011;36024;47.974;16.398;2023-03-30T17:08:12;3.43;;;2.87;;
50126;SDS011;36024;47.974;16.398;2023-03-30T17:10:43;5.80;;;3.60;;
50126;SDS011;36024;47.974;16.398;2023-03-30T17:13:10;4.40;;;3.40;;
50126;SDS011;36024;47.974;16.398;2023-03-30T17:15:36;4.23;;;2.90;;
50126;SDS011;36024;47.974;16.398;2023-03-30T17:18:04;3.93;;;3.03;;
50126;SDS011;36024;47.974;16.398;2023-03-30T17:20:35;5.73;;;3.50;;
50126;SDS011;36024;47.974;16.398;2023-03-30T17:23:07;7.40;;;3.60;;
50126;SDS011;36024;47.974;16.398;2023-03-30T17:25:35;7.93;;;3.97;;
50126;SDS011;36024;47.974;16.398;2023-03-30T17:28:05;5.37;;;3.50;;
50126;SDS011;36024;47.974;16.398;2023-03-30T17:30:36;5.20;;;3.60;;
50126;SDS011;36024;47.974;16.398;2023-03-30T17:33:05;4.03;;;3.23;;
50126;SDS011;36024;47.974;16.398;2023-03-30T17:35:38;4.83;;;3.50;;